createdAt,value
2023-02-23T00:02:22.586Z,7.00
2023-02-23T00:07:22.197Z,7.00
2023-02-23T00:12:20.741Z,6.90
2023-02-23T00:17:18.826Z,6.90
2023-02-23T00:22:16.861Z,7.00
2023-02-23T00:27:19.949Z,6.90
2023-02-23T00:32:19.936Z,6.90
2023-02-23T00:37:19.201Z,6.90
2023-02-23T00:42:20.918Z,6.70
2023-02-23T00:47:19.085Z,6.70
2023-02-23T00:52:17.089Z,6.70
2023-02-23T00:57:15.109Z,6.80
2023-02-23T01:02:15.374Z,6.90
2023-02-23T01:07:13.455Z,6.80
2023-02-23T01:12:11.486Z,6.70
2023-02-23T01:17:09.533Z,6.70
2023-02-23T01:22:09.326Z,6.80
2023-02-23T01:27:07.413Z,6.80
2023-02-23T01:32:05.799Z,6.70
2023-02-23T01:37:04.820Z,6.80
2023-02-23T01:42:05.288Z,6.80
2023-02-23T01:47:03.337Z,6.60
2023-02-23T01:52:06.214Z,6.50
2023-02-23T01:57:08.820Z,6.40
2023-02-23T02:02:07.604Z,6.50
2023-02-23T02:07:07.689Z,6.40
2023-02-23T02:12:14.171Z,6.40
2023-02-23T02:17:27.884Z,6.40
2023-02-23T02:23:02.351Z,6.40
2023-02-23T02:28:31.188Z,6.30
2023-02-23T02:33:55.533Z,6.30
2023-02-23T02:39:10.511Z,6.20
2023-02-23T02:44:15.430Z,6.20
2023-02-23T02:49:19.872Z,6.10
2023-02-23T02:54:28.123Z,6.10
2023-02-23T02:59:44.862Z,6.00
2023-02-23T03:05:00.672Z,6.20
2023-02-23T03:10:25.848Z,6.10
2023-02-23T03:15:58.117Z,6.00
2023-02-23T03:27:37.977Z,6.00
2023-02-23T03:32:59.165Z,6.00
2023-02-23T03:38:22.555Z,5.90
2023-02-23T03:43:44.617Z,6.00
2023-02-23T03:49:04.426Z,5.90
2023-02-23T03:54:26.957Z,5.80
2023-02-23T03:59:47.843Z,5.70
2023-02-23T04:05:04.846Z,5.70
2023-02-23T04:10:21.263Z,5.70
2023-02-23T04:15:27.064Z,5.70
2023-02-23T04:20:25.951Z,5.70
2023-02-23T04:25:24.022Z,5.70
2023-02-23T04:30:25.143Z,5.70
2023-02-23T04:35:23.632Z,5.70
2023-02-23T04:40:24.153Z,5.70
2023-02-23T04:45:24.972Z,5.70
2023-02-23T04:50:23.241Z,5.70
2023-02-23T04:55:23.999Z,5.80
2023-02-23T05:00:23.653Z,5.70
2023-02-23T05:05:21.703Z,5.70
2023-02-23T05:10:19.764Z,5.70
2023-02-23T05:15:17.988Z,5.80
2023-02-23T05:20:17.400Z,5.70
2023-02-23T05:25:15.636Z,5.60
2023-02-23T05:30:14.215Z,5.50
2023-02-23T05:35:12.892Z,5.40
2023-02-23T05:40:13.713Z,5.30
2023-02-23T05:45:12.368Z,5.30
2023-02-23T05:50:12.383Z,5.20
2023-02-23T05:55:12.819Z,5.20
2023-02-23T06:00:14.303Z,5.10
2023-02-23T06:05:13.491Z,5.00
2023-02-23T06:10:13.540Z,4.90
2023-02-23T06:15:12.336Z,5.00
2023-02-23T06:20:11.884Z,5.00
2023-02-23T06:25:12.797Z,5.10
2023-02-23T06:30:13.478Z,5.20
2023-02-23T06:35:11.830Z,5.10
2023-02-23T06:40:11.626Z,5.20
2023-02-23T06:45:10.838Z,5.10
2023-02-23T06:50:11.996Z,5.20
2023-02-23T06:55:13.088Z,5.30
2023-02-23T07:00:14.951Z,5.40
2023-02-23T07:05:14.407Z,5.40
2023-02-23T07:10:13.259Z,5.50
2023-02-23T07:15:12.337Z,5.70
2023-02-23T07:20:12.758Z,5.80
2023-02-23T07:25:13.505Z,5.80
2023-02-23T07:30:12.936Z,5.90
2023-02-23T07:35:11.745Z,5.80
2023-02-23T07:40:12.594Z,5.70
2023-02-23T07:45:11.348Z,5.60
2023-02-23T07:50:12.612Z,5.60
2023-02-23T07:55:13.056Z,5.50
2023-02-23T08:00:12.539Z,5.50
2023-02-23T08:05:15.466Z,5.80
2023-02-23T08:10:14.971Z,5.90
2023-02-23T08:15:13.226Z,6.00
2023-02-23T08:20:12.585Z,6.10
2023-02-23T08:25:11.517Z,6.20
2023-02-23T08:30:14.111Z,6.50
2023-02-23T08:35:12.594Z,6.80
2023-02-23T08:40:12.763Z,7.30
2023-02-23T08:45:19.080Z,7.10
2023-02-23T08:50:17.962Z,7.20
2023-02-23T08:55:18.130Z,7.20
2023-02-23T09:00:18.889Z,7.40
2023-02-23T09:05:17.879Z,7.60
2023-02-23T09:10:17.533Z,7.60
2023-02-23T09:15:16.953Z,7.60
2023-02-23T09:20:17.334Z,7.70
2023-02-23T09:25:18.342Z,7.90
2023-02-23T09:30:20.805Z,8.00
2023-02-23T09:35:21.536Z,8.20
2023-02-23T09:40:23.721Z,8.10
2023-02-23T09:45:31.195Z,8.30
2023-02-23T09:50:32.641Z,8.90
2023-02-23T09:55:31.600Z,9.30
2023-02-23T10:00:33.061Z,10.10
2023-02-23T10:05:35.615Z,11.30
2023-02-23T10:10:44.897Z,13.00
2023-02-23T10:15:48.421Z,13.90
2023-02-23T10:20:54.844Z,15.30
2023-02-23T10:25:55.207Z,16.30
2023-02-23T10:30:56.902Z,17.40
2023-02-23T10:36:12.513Z,18.10
2023-02-23T10:41:14.845Z,18.30
2023-02-23T10:46:22.508Z,17.70
2023-02-23T10:51:26.920Z,17.40
2023-02-23T10:56:25.522Z,17.50
2023-02-23T11:01:43.915Z,17.70
2023-02-23T11:06:48.743Z,17.60
2023-02-23T11:11:58.178Z,17.60
2023-02-23T11:16:59.440Z,17.90
2023-02-23T11:21:57.616Z,17.80
2023-02-23T11:27:03.886Z,16.90
2023-02-23T11:32:10.165Z,16.60
2023-02-23T11:37:20.693Z,15.80
2023-02-23T11:42:21.121Z,15.40
2023-02-23T11:47:23.740Z,15.40
2023-02-23T11:52:24.242Z,14.80
2023-02-23T11:57:23.258Z,14.40
2023-02-23T12:02:26.296Z,14.40
2023-02-23T12:07:41.928Z,15.00
2023-02-23T12:12:57.054Z,14.90
2023-02-23T12:18:01.321Z,14.60
2023-02-23T12:23:04.983Z,14.50
2023-02-23T12:28:18.281Z,14.10
2023-02-23T12:33:22.939Z,13.90
2023-02-23T12:38:27.924Z,13.50
2023-02-23T12:43:31.752Z,13.30
2023-02-23T12:48:40.468Z,13.20
2023-02-23T12:53:42.160Z,12.80
2023-02-23T12:58:45.531Z,12.70
2023-02-23T13:04:11.412Z,12.60
2023-02-23T13:09:21.379Z,12.50
2023-02-23T13:14:29.884Z,12.50
2023-02-23T13:19:36.409Z,12.70
2023-02-23T13:24:40.316Z,12.70
2023-02-23T13:29:41.046Z,12.70
2023-02-23T13:34:45.827Z,12.60
2023-02-23T13:39:57.528Z,12.20
2023-02-23T13:45:08.156Z,12.20
2023-02-23T13:50:18.713Z,12.30
2023-02-23T13:55:49.570Z,12.20
2023-02-23T14:01:04.051Z,12.20
2023-02-23T14:06:05.242Z,12.00
2023-02-23T14:11:04.267Z,11.90
2023-02-23T14:16:18.781Z,11.90
2023-02-23T14:21:29.836Z,11.70
2023-02-23T14:26:46.033Z,11.70
2023-02-23T14:31:57.353Z,11.60
2023-02-23T14:36:57.264Z,11.60
2023-02-23T14:41:57.491Z,11.50
2023-02-23T14:46:58.646Z,11.40
2023-02-23T14:52:01.215Z,11.10
2023-02-23T14:57:01.699Z,11.00
2023-02-23T15:02:02.300Z,10.90
2023-02-23T15:07:03.325Z,10.80
2023-02-23T15:12:12.545Z,10.60
2023-02-23T15:17:19.858Z,10.70
2023-02-23T15:22:30.051Z,10.70
2023-02-23T15:27:37.242Z,10.50
2023-02-23T15:32:39.438Z,10.50
2023-02-23T15:42:45.149Z,10.50
2023-02-23T15:47:44.625Z,10.50
2023-02-23T15:52:49.501Z,10.50
2023-02-23T15:57:53.816Z,10.50
2023-02-23T16:02:52.263Z,10.50
2023-02-23T16:08:06.182Z,10.60
2023-02-23T16:13:04.728Z,10.50
2023-02-23T16:18:05.302Z,10.50
2023-02-23T16:23:05.948Z,10.60
2023-02-23T16:28:09.604Z,10.60
2023-02-23T16:33:19.037Z,10.60
2023-02-23T16:38:26.295Z,10.70
2023-02-23T16:43:24.578Z,10.80
2023-02-23T16:48:24.331Z,10.80
2023-02-23T16:53:24.118Z,10.70
2023-02-23T16:58:25.849Z,10.60
2023-02-23T17:03:26.206Z,10.60
2023-02-23T17:08:26.345Z,10.70
2023-02-23T17:13:25.714Z,10.50
2023-02-23T17:18:26.058Z,10.50
2023-02-23T17:23:27.241Z,10.50
2023-02-23T17:28:25.971Z,10.50
2023-02-23T17:33:25.362Z,10.40
2023-02-23T17:38:34.633Z,10.40
2023-02-23T17:43:32.868Z,10.50
2023-02-23T17:48:34.754Z,10.50
2023-02-23T17:53:34.419Z,10.50
2023-02-23T17:58:32.787Z,10.50
2023-02-23T18:03:33.826Z,10.50
2023-02-23T18:08:34.450Z,10.50
2023-02-23T18:13:34.331Z,10.50
2023-02-23T18:18:33.922Z,10.40
2023-02-23T18:23:33.703Z,10.30
2023-02-23T18:28:32.254Z,10.20
2023-02-23T18:33:31.398Z,10.10
2023-02-23T18:38:29.730Z,10.10
2023-02-23T18:43:29.376Z,10.10
2023-02-23T18:48:27.519Z,10.10
2023-02-23T18:53:25.786Z,10.00
2023-02-23T18:58:25.218Z,10.00
2023-02-23T19:03:24.825Z,9.90
2023-02-23T19:08:23.675Z,9.90
2023-02-23T19:13:22.402Z,9.90
2023-02-23T19:18:21.169Z,9.90
2023-02-23T19:23:20.898Z,9.90
2023-02-23T19:28:19.345Z,9.90
2023-02-23T19:33:18.034Z,9.90
2023-02-23T19:38:17.652Z,9.90
2023-02-23T19:43:17.264Z,9.90
2023-02-23T19:48:17.692Z,9.90
2023-02-23T19:53:16.089Z,9.80
2023-02-23T19:58:14.557Z,9.70
2023-02-23T20:03:14.489Z,9.70
2023-02-23T20:08:13.212Z,9.60
2023-02-23T20:13:11.816Z,9.50
2023-02-23T20:18:10.155Z,9.50
2023-02-23T20:23:09.837Z,9.40
2023-02-23T20:28:08.622Z,9.30
2023-02-23T20:33:10.860Z,9.20
2023-02-23T20:38:11.527Z,9.10
2023-02-23T20:43:09.809Z,9.00
2023-02-23T20:48:09.753Z,9.00
2023-02-23T20:53:08.768Z,9.10
2023-02-23T20:58:08.385Z,9.10
2023-02-23T21:03:06.557Z,9.20
2023-02-23T21:08:07.613Z,9.20
2023-02-23T21:13:11.019Z,9.10
2023-02-23T21:18:09.964Z,9.10
2023-02-23T21:23:09.285Z,9.10
2023-02-23T21:28:09.062Z,9.00
2023-02-23T21:33:07.502Z,8.90
2023-02-23T21:38:08.372Z,9.00
2023-02-23T21:43:09.643Z,9.00
2023-02-23T21:48:07.938Z,8.90
2023-02-23T21:53:06.155Z,8.90
2023-02-23T21:58:05.841Z,9.00
2023-02-23T22:03:05.690Z,9.00
2023-02-23T22:08:04.261Z,9.00
2023-02-23T22:13:03.136Z,8.90
2023-02-23T22:18:01.708Z,8.80
2023-02-23T22:23:03.198Z,8.70
2023-02-23T22:28:02.029Z,8.80
2023-02-23T22:33:00.435Z,8.70
2023-02-23T22:38:01.703Z,8.70
2023-02-23T22:42:59.951Z,8.60
2023-02-23T22:48:01.647Z,8.50
2023-02-23T22:53:01.622Z,8.50
2023-02-23T22:58:01.022Z,8.30
2023-02-23T23:02:59.357Z,8.30
2023-02-23T23:07:57.616Z,8.40
2023-02-23T23:12:59.356Z,8.40
2023-02-23T23:17:57.608Z,8.40
2023-02-23T23:22:57.260Z,8.30
2023-02-23T23:27:56.752Z,8.30
2023-02-23T23:32:55.119Z,8.20
2023-02-23T23:37:53.415Z,8.20
2023-02-23T23:42:51.989Z,8.20
2023-02-23T23:47:51.448Z,8.20
2023-02-23T23:52:50.620Z,8.10
2023-02-23T23:57:49.058Z,8.10
